sensor_id;sensor_type;location;lat;lon;timestamp;pressure;altitude;pressure_sealevel;temperature;humidity
11329;BME280;5719;42.714;23.732;2023-05-24T00:01:50;94246.91;;;13.98;84.95
11329;BME280;5719;42.714;23.732;2023-05-24T00:04:17;94246.91;;;13.98;84.90
11329;BME280;5719;42.714;23.732;2023-05-24T00:06:45;94241.41;;;13.92;85.05
11329;BME280;5719;42.714;23.732;2023-05-24T00:09:13;94252.91;;;13.89;85.51
11329;BME280;5719;42.714;23.732;2023-05-24T00:11:39;94245.25;;;13.88;84.58
11329;BME280;5719;42.714;23.732;2023-05-24T00:14:06;94243.88;;;13.84;84.89
11329;BME280;5719;42.714;23.732;2023-05-24T00:16:33;94253.59;;;13.82;85.70
11329;BME280;5719;42.714;23.732;2023-05-24T00:19:01;94247.00;;;13.77;85.77
11329;BME280;5719;42.714;23.732;2023-05-24T00:21:28;94247.16;;;13.76;84.96
11329;BME280;5719;42.714;23.732;2023-05-24T00:23:57;94246.06;;;13.69;84.60
11329;BME280;5719;42.714;23.732;2023-05-24T00:26:24;94250.69;;;13.65;85.02
11329;BME280;5719;42.714;23.732;2023-05-24T00:28:51;94245.19;;;13.59;85.50
11329;BME280;5719;42.714;23.732;2023-05-24T00:31:18;94248.91;;;13.56;85.01
11329;BME280;5719;42.714;23.732;2023-05-24T00:33:45;94246.56;;;13.53;85.12
11329;BME280;5719;42.714;23.732;2023-05-24T00:36:12;94252.03;;;13.50;84.28
11329;BME280;5719;42.714;23.732;2023-05-24T00:38:39;94242.88;;;13.46;84.68
11329;BME280;5719;42.714;23.732;2023-05-24T00:41:07;94238.88;;;13.42;84.00
11329;BME280;5719;42.714;23.732;2023-05-24T00:43:36;94239.69;;;13.33;84.49
11329;BME280;5719;42.714;23.732;2023-05-24T00:46:13;94248.44;;;13.32;84.92
11329;BME280;5719;42.714;23.732;2023-05-24T00:48:41;94240.75;;;13.21;84.75
11329;BME280;5719;42.714;23.732;2023-05-24T00:51:08;94248.53;;;13.21;85.51
11329;BME280;5719;42.714;23.732;2023-05-24T00:53:36;94246.31;;;13.16;85.17
11329;BME280;5719;42.714;23.732;2023-05-24T00:56:04;94247.69;;;13.11;86.20
11329;BME280;5719;42.714;23.732;2023-05-24T00:58:33;94247.88;;;13.08;87.36
11329;BME280;5719;42.714;23.732;2023-05-24T01:01:02;94237.91;;;13.03;87.71
11329;BME280;5719;42.714;23.732;2023-05-24T01:03:29;94237.63;;;12.97;88.98
11329;BME280;5719;42.714;23.732;2023-05-24T01:05:56;94239.81;;;13.01;88.86
11329;BME280;5719;42.714;23.732;2023-05-24T01:08:38;94243.22;;;13.02;90.15
11329;BME280;5719;42.714;23.732;2023-05-24T01:11:09;94241.56;;;13.01;89.31
11329;BME280;5719;42.714;23.732;2023-05-24T01:13:45;94243.88;;;12.94;88.57
11329;BME280;5719;42.714;23.732;2023-05-24T01:16:17;94233.19;;;12.88;87.64
11329;BME280;5719;42.714;23.732;2023-05-24T01:18:49;94238.28;;;12.89;87.11
11329;BME280;5719;42.714;23.732;2023-05-24T01:21:30;94241.94;;;12.87;86.70
11329;BME280;5719;42.714;23.732;2023-05-24T01:24:11;94250.13;;;12.82;86.37
11329;BME280;5719;42.714;23.732;2023-05-24T01:29:15;94245.09;;;12.60;86.57
11329;BME280;5719;42.714;23.732;2023-05-24T01:31:42;94245.19;;;12.58;86.75
11329;BME280;5719;42.714;23.732;2023-05-24T01:34:10;94250.66;;;12.55;87.34
11329;BME280;5719;42.714;23.732;2023-05-24T01:36:37;94238.44;;;12.46;87.38
11329;BME280;5719;42.714;23.732;2023-05-24T01:39:04;94239.81;;;12.50;86.95
11329;BME280;5719;42.714;23.732;2023-05-24T01:41:36;94240.72;;;12.40;87.49
11329;BME280;5719;42.714;23.732;2023-05-24T01:44:12;94240.34;;;12.44;86.94
11329;BME280;5719;42.714;23.732;2023-05-24T01:46:46;94236.81;;;12.45;87.05
11329;BME280;5719;42.714;23.732;2023-05-24T01:49:20;94239.66;;;12.42;87.37
11329;BME280;5719;42.714;23.732;2023-05-24T01:51:49;94247.03;;;12.26;87.78
11329;BME280;5719;42.714;23.732;2023-05-24T01:54:20;94246.63;;;12.10;88.62
11329;BME280;5719;42.714;23.732;2023-05-24T01:56:51;94245.59;;;12.12;88.79
11329;BME280;5719;42.714;23.732;2023-05-24T01:59:19;94233.50;;;12.02;88.56
11329;BME280;5719;42.714;23.732;2023-05-24T02:01:49;94240.31;;;12.03;89.79
11329;BME280;5719;42.714;23.732;2023-05-24T02:04:16;94238.47;;;11.94;89.51
11329;BME280;5719;42.714;23.732;2023-05-24T02:06:43;94244.34;;;11.96;89.81
11329;BME280;5719;42.714;23.732;2023-05-24T02:09:10;94246.00;;;11.97;89.38
11329;BME280;5719;42.714;23.732;2023-05-24T02:11:37;94234.25;;;11.93;89.35
11329;BME280;5719;42.714;23.732;2023-05-24T02:14:04;94238.59;;;11.92;90.13
11329;BME280;5719;42.714;23.732;2023-05-24T02:16:31;94241.38;;;11.79;90.74
11329;BME280;5719;42.714;23.732;2023-05-24T02:18:59;94251.50;;;11.71;90.20
11329;BME280;5719;42.714;23.732;2023-05-24T02:21:27;94247.16;;;11.72;90.34
11329;BME280;5719;42.714;23.732;2023-05-24T02:23:53;94252.19;;;11.73;90.69
11329;BME280;5719;42.714;23.732;2023-05-24T02:26:21;94250.31;;;11.75;91.02
11329;BME280;5719;42.714;23.732;2023-05-24T02:28:48;94249.38;;;11.76;89.59
11329;BME280;5719;42.714;23.732;2023-05-24T02:31:15;94249.38;;;11.76;88.55
11329;BME280;5719;42.714;23.732;2023-05-24T02:33:42;94247.16;;;11.72;88.68
11329;BME280;5719;42.714;23.732;2023-05-24T02:36:10;94239.47;;;11.70;88.83
11329;BME280;5719;42.714;23.732;2023-05-24T02:38:37;94236.81;;;11.72;88.50
11329;BME280;5719;42.714;23.732;2023-05-24T02:41:04;94236.88;;;11.70;87.99
11329;BME280;5719;42.714;23.732;2023-05-24T02:43:33;94243.97;;;11.68;87.92
11329;BME280;5719;42.714;23.732;2023-05-24T02:46:00;94240.31;;;11.60;88.12
11329;BME280;5719;42.714;23.732;2023-05-24T02:48:27;94241.84;;;11.62;88.29
11329;BME280;5719;42.714;23.732;2023-05-24T02:50:53;94247.00;;;11.62;88.51
11329;BME280;5719;42.714;23.732;2023-05-24T02:53:22;94240.31;;;11.60;88.23
11329;BME280;5719;42.714;23.732;2023-05-24T02:55:48;94245.66;;;11.58;87.62
11329;BME280;5719;42.714;23.732;2023-05-24T02:58:15;94234.69;;;11.55;87.23
11329;BME280;5719;42.714;23.732;2023-05-24T03:00:43;94227.56;;;11.47;87.57
11329;BME280;5719;42.714;23.732;2023-05-24T03:03:10;94239.66;;;11.47;88.54
11329;BME280;5719;42.714;23.732;2023-05-24T03:05:36;94239.78;;;11.45;88.80
11329;BME280;5719;42.714;23.732;2023-05-24T03:08:04;94234.84;;;11.42;88.95
11329;BME280;5719;42.714;23.732;2023-05-24T03:10:32;94232.38;;;11.41;88.82
11329;BME280;5719;42.714;23.732;2023-05-24T03:12:59;94234.16;;;11.40;87.55
11329;BME280;5719;42.714;23.732;2023-05-24T03:15:26;94242.84;;;11.39;87.33
11329;BME280;5719;42.714;23.732;2023-05-24T03:17:52;94239.44;;;11.39;87.85
11329;BME280;5719;42.714;23.732;2023-05-24T03:20:19;94244.88;;;11.36;88.04
11329;BME280;5719;42.714;23.732;2023-05-24T03:22:48;94240.63;;;11.35;87.73
11329;BME280;5719;42.714;23.732;2023-05-24T03:25:14;94245.09;;;11.32;88.00
11329;BME280;5719;42.714;23.732;2023-05-24T03:27:43;94249.47;;;11.32;88.64
11329;BME280;5719;42.714;23.732;2023-05-24T03:30:11;94251.06;;;11.33;88.42
11329;BME280;5719;42.714;23.732;2023-05-24T03:32:37;94257.09;;;11.33;88.40
11329;BME280;5719;42.714;23.732;2023-05-24T03:35:05;94243.94;;;11.25;88.82
11329;BME280;5719;42.714;23.732;2023-05-24T03:37:32;94249.81;;;11.27;89.18
11329;BME280;5719;42.714;23.732;2023-05-24T03:39:59;94259.81;;;11.32;89.24
11329;BME280;5719;42.714;23.732;2023-05-24T03:42:25;94256.50;;;11.30;89.68
11329;BME280;5719;42.714;23.732;2023-05-24T03:44:54;94251.91;;;11.33;90.32
11329;BME280;5719;42.714;23.732;2023-05-24T03:47:20;94252.38;;;11.39;90.48
11329;BME280;5719;42.714;23.732;2023-05-24T03:49:47;94258.72;;;11.46;91.23
11329;BME280;5719;42.714;23.732;2023-05-24T03:52:14;94260.81;;;11.52;91.38
11329;BME280;5719;42.714;23.732;2023-05-24T03:54:41;94266.34;;;11.58;91.78
11329;BME280;5719;42.714;23.732;2023-05-24T03:57:08;94270.09;;;11.65;92.56
11329;BME280;5719;42.714;23.732;2023-05-24T03:59:35;94275.72;;;11.70;93.55
11329;BME280;5719;42.714;23.732;2023-05-24T04:02:03;94270.72;;;11.58;95.96
11329;BME280;5719;42.714;23.732;2023-05-24T04:04:30;94266.81;;;11.52;96.15
11329;BME280;5719;42.714;23.732;2023-05-24T04:06:57;94269.34;;;11.31;97.05
11329;BME280;5719;42.714;23.732;2023-05-24T04:09:24;94271.19;;;11.29;97.10
11329;BME280;5719;42.714;23.732;2023-05-24T04:11:51;94277.53;;;11.48;98.16
11329;BME280;5719;42.714;23.732;2023-05-24T04:14:18;94279.66;;;11.54;98.71
11329;BME280;5719;42.714;23.732;2023-05-24T04:16:45;94271.03;;;11.64;98.59
11329;BME280;5719;42.714;23.732;2023-05-24T04:19:14;94283.00;;;11.88;98.96
11329;BME280;5719;42.714;23.732;2023-05-24T04:21:41;94288.34;;;12.07;98.56
11329;BME280;5719;42.714;23.732;2023-05-24T04:24:07;94290.31;;;12.14;98.52
11329;BME280;5719;42.714;23.732;2023-05-24T04:26:34;94290.03;;;12.28;98.65
11329;BME280;5719;42.714;23.732;2023-05-24T04:29:02;94291.38;;;12.44;97.96
11329;BME280;5719;42.714;23.732;2023-05-24T04:31:29;94285.28;;;12.54;97.43
11329;BME280;5719;42.714;23.732;2023-05-24T04:33:57;94285.50;;;12.62;97.86
11329;BME280;5719;42.714;23.732;2023-05-24T04:36:26;94289.81;;;12.83;98.16
11329;BME280;5719;42.714;23.732;2023-05-24T04:38:55;94284.06;;;13.00;98.40
11329;BME280;5719;42.714;23.732;2023-05-24T04:41:27;94284.31;;;13.17;98.18
11329;BME280;5719;42.714;23.732;2023-05-24T04:43:56;94294.22;;;13.33;98.88
11329;BME280;5719;42.714;23.732;2023-05-24T04:46:24;94290.91;;;13.31;100.00
11329;BME280;5719;42.714;23.732;2023-05-24T04:48:51;94290.81;;;13.42;100.00
11329;BME280;5719;42.714;23.732;2023-05-24T04:51:20;94269.09;;;13.43;100.00
11329;BME280;5719;42.714;23.732;2023-05-24T04:53:49;94297.34;;;13.77;100.00
11329;BME280;5719;42.714;23.732;2023-05-24T04:56:16;94298.84;;;13.89;99.23
11329;BME280;5719;42.714;23.732;2023-05-24T04:58:43;94289.00;;;13.92;98.17
11329;BME280;5719;42.714;23.732;2023-05-24T05:01:10;94293.44;;;14.20;98.94
11329;BME280;5719;42.714;23.732;2023-05-24T05:03:38;94299.34;;;14.42;98.37
11329;BME280;5719;42.714;23.732;2023-05-24T05:06:06;94296.47;;;14.64;97.60
11329;BME280;5719;42.714;23.732;2023-05-24T05:08:33;94301.94;;;14.70;97.41
11329;BME280;5719;42.714;23.732;2023-05-24T05:11:02;94298.09;;;14.75;96.77
11329;BME280;5719;42.714;23.732;2023-05-24T05:13:28;94305.34;;;14.61;97.08
11329;BME280;5719;42.714;23.732;2023-05-24T05:15:55;94304.78;;;14.29;99.37
11329;BME280;5719;42.714;23.732;2023-05-24T05:18:24;94300.84;;;14.44;98.20
11329;BME280;5719;42.714;23.732;2023-05-24T05:20:51;94295.59;;;14.83;96.35
11329;BME280;5719;42.714;23.732;2023-05-24T05:23:18;94303.44;;;15.29;94.21
11329;BME280;5719;42.714;23.732;2023-05-24T05:25:45;94305.53;;;15.62;92.16
11329;BME280;5719;42.714;23.732;2023-05-24T05:28:14;94303.31;;;15.85;90.01
11329;BME280;5719;42.714;23.732;2023-05-24T05:30:41;94307.09;;;16.18;89.30
11329;BME280;5719;42.714;23.732;2023-05-24T05:33:07;94309.34;;;16.13;89.01
11329;BME280;5719;42.714;23.732;2023-05-24T05:35:35;94306.72;;;15.95;91.22
11329;BME280;5719;42.714;23.732;2023-05-24T05:38:01;94307.88;;;16.28;90.55
11329;BME280;5719;42.714;23.732;2023-05-24T05:40:28;94318.81;;;16.49;87.33
11329;BME280;5719;42.714;23.732;2023-05-24T05:42:55;94315.03;;;16.61;85.19
11329;BME280;5719;42.714;23.732;2023-05-24T05:45:24;94316.28;;;16.75;85.16
11329;BME280;5719;42.714;23.732;2023-05-24T05:47:51;94315.03;;;17.05;84.23
11329;BME280;5719;42.714;23.732;2023-05-24T05:50:18;94320.97;;;17.41;80.92
11329;BME280;5719;42.714;23.732;2023-05-24T05:52:44;94319.38;;;17.74;77.59
11329;BME280;5719;42.714;23.732;2023-05-24T05:55:11;94320.72;;;17.78;77.22
11329;BME280;5719;42.714;23.732;2023-05-24T05:57:38;94330.13;;;18.12;75.71
11329;BME280;5719;42.714;23.732;2023-05-24T06:00:06;94317.59;;;18.40;72.68
11329;BME280;5719;42.714;23.732;2023-05-24T06:02:35;94322.56;;;18.51;73.16
11329;BME280;5719;42.714;23.732;2023-05-24T06:05:02;94323.88;;;18.64;71.47
11329;BME280;5719;42.714;23.732;2023-05-24T06:07:29;94333.97;;;18.42;74.32
11329;BME280;5719;42.714;23.732;2023-05-24T06:09:56;94326.44;;;18.39;73.97
11329;BME280;5719;42.714;23.732;2023-05-24T06:12:23;94321.59;;;19.01;72.12
11329;BME280;5719;42.714;23.732;2023-05-24T06:14:50;94321.75;;;19.16;71.61
11329;BME280;5719;42.714;23.732;2023-05-24T06:17:17;94320.78;;;19.08;73.61
11329;BME280;5719;42.714;23.732;2023-05-24T06:19:45;94320.75;;;19.17;73.92
11329;BME280;5719;42.714;23.732;2023-05-24T06:22:12;94321.25;;;19.20;72.59
11329;BME280;5719;42.714;23.732;2023-05-24T06:24:39;94327.09;;;19.63;72.28
11329;BME280;5719;42.714;23.732;2023-05-24T06:27:06;94327.94;;;20.02;70.53
11329;BME280;5719;42.714;23.732;2023-05-24T06:29:33;94334.41;;;19.83;69.50
11329;BME280;5719;42.714;23.732;2023-05-24T06:32:00;94330.22;;;20.05;69.30
11329;BME280;5719;42.714;23.732;2023-05-24T06:34:27;94334.25;;;20.54;67.82
11329;BME280;5719;42.714;23.732;2023-05-24T06:36:55;94337.69;;;20.78;65.91
11329;BME280;5719;42.714;23.732;2023-05-24T06:39:22;94333.34;;;21.16;64.42
11329;BME280;5719;42.714;23.732;2023-05-24T06:41:50;94334.34;;;21.29;61.61
11329;BME280;5719;42.714;23.732;2023-05-24T06:44:18;94335.66;;;21.63;61.52
11329;BME280;5719;42.714;23.732;2023-05-24T06:46:46;94334.16;;;21.97;60.86
11329;BME280;5719;42.714;23.732;2023-05-24T06:49:13;94337.22;;;22.16;59.90
11329;BME280;5719;42.714;23.732;2023-05-24T06:51:40;94338.41;;;22.13;60.09
11329;BME280;5719;42.714;23.732;2023-05-24T06:54:08;94330.84;;;22.25;59.01
11329;BME280;5719;42.714;23.732;2023-05-24T06:56:35;94331.22;;;22.58;59.15
11329;BME280;5719;42.714;23.732;2023-05-24T06:59:02;94323.00;;;22.82;57.73
11329;BME280;5719;42.714;23.732;2023-05-24T07:01:29;94321.72;;;22.99;57.86
11329;BME280;5719;42.714;23.732;2023-05-24T07:03:57;94324.59;;;23.25;55.89
11329;BME280;5719;42.714;23.732;2023-05-24T07:06:24;94323.06;;;23.37;57.31
11329;BME280;5719;42.714;23.732;2023-05-24T07:08:51;94323.16;;;23.44;55.48
11329;BME280;5719;42.714;23.732;2023-05-24T07:11:19;94327.22;;;23.47;55.41
11329;BME280;5719;42.714;23.732;2023-05-24T07:13:47;94316.53;;;23.55;55.23
11329;BME280;5719;42.714;23.732;2023-05-24T07:16:14;94325.34;;;23.68;53.84
11329;BME280;5719;42.714;23.732;2023-05-24T07:18:41;94332.06;;;23.22;54.55
11329;BME280;5719;42.714;23.732;2023-05-24T07:21:07;94323.97;;;22.81;57.39
11329;BME280;5719;42.714;23.732;2023-05-24T07:23:36;94329.34;;;22.87;58.49
11329;BME280;5719;42.714;23.732;2023-05-24T07:26:03;94332.16;;;23.07;58.27
11329;BME280;5719;42.714;23.732;2023-05-24T07:28:31;94324.72;;;23.38;56.48
11329;BME280;5719;42.714;23.732;2023-05-24T07:31:02;94323.94;;;24.07;55.00
11329;BME280;5719;42.714;23.732;2023-05-24T07:33:29;94327.38;;;24.48;52.80
11329;BME280;5719;42.714;23.732;2023-05-24T07:35:56;94319.19;;;24.84;51.82
11329;BME280;5719;42.714;23.732;2023-05-24T07:38:23;94321.66;;;25.05;49.67
11329;BME280;5719;42.714;23.732;2023-05-24T07:40:50;94326.53;;;25.21;49.38
11329;BME280;5719;42.714;23.732;2023-05-24T07:43:17;94316.06;;;24.74;48.67
11329;BME280;5719;42.714;23.732;2023-05-24T07:45:46;94320.72;;;24.11;51.17
11329;BME280;5719;42.714;23.732;2023-05-24T07:48:13;94321.75;;;23.48;53.22
11329;BME280;5719;42.714;23.732;2023-05-24T07:50:40;94319.13;;;24.17;53.25
11329;BME280;5719;42.714;23.732;2023-05-24T07:53:07;94320.50;;;24.54;50.93
11329;BME280;5719;42.714;23.732;2023-05-24T07:55:34;94315.88;;;24.69;52.56
11329;BME280;5719;42.714;23.732;2023-05-24T07:58:01;94312.22;;;24.83;49.69
11329;BME280;5719;42.714;23.732;2023-05-24T08:00:28;94313.91;;;24.84;50.33
11329;BME280;5719;42.714;23.732;2023-05-24T08:02:56;94308.13;;;24.61;51.65
11329;BME280;5719;42.714;23.732;2023-05-24T08:05:23;94317.28;;;23.76;53.37
11329;BME280;5719;42.714;23.732;2023-05-24T08:07:50;94315.56;;;24.37;52.70
11329;BME280;5719;42.714;23.732;2023-05-24T08:10:18;94321.81;;;24.23;52.25
11329;BME280;5719;42.714;23.732;2023-05-24T08:12:46;94317.38;;;23.89;53.85
11329;BME280;5719;42.714;23.732;2023-05-24T08:15:14;94313.28;;;23.93;53.10
11329;BME280;5719;42.714;23.732;2023-05-24T08:17:41;94318.72;;;24.13;51.09
11329;BME280;5719;42.714;23.732;2023-05-24T08:20:10;94311.84;;;24.19;50.66
11329;BME280;5719;42.714;23.732;2023-05-24T08:22:38;94310.47;;;23.95;51.35
11329;BME280;5719;42.714;23.732;2023-05-24T08:25:06;94310.81;;;24.20;52.67
11329;BME280;5719;42.714;23.732;2023-05-24T08:27:33;94307.53;;;23.77;52.69
11329;BME280;5719;42.714;23.732;2023-05-24T08:30:00;94309.09;;;24.06;52.85
11329;BME280;5719;42.714;23.732;2023-05-24T08:32:28;94309.56;;;24.16;51.89
11329;BME280;5719;42.714;23.732;2023-05-24T08:34:56;94302.91;;;23.51;52.28
11329;BME280;5719;42.714;23.732;2023-05-24T08:37:24;94308.53;;;23.76;50.62
11329;BME280;5719;42.714;23.732;2023-05-24T08:39:52;94312.13;;;23.68;43.51
11329;BME280;5719;42.714;23.732;2023-05-24T08:42:20;94311.13;;;24.04;46.69
11329;BME280;5719;42.714;23.732;2023-05-24T08:44:52;94309.06;;;24.33;49.01
11329;BME280;5719;42.714;23.732;2023-05-24T08:47:19;94300.19;;;24.61;46.93
11329;BME280;5719;42.714;23.732;2023-05-24T08:49:47;94308.22;;;24.87;45.88
11329;BME280;5719;42.714;23.732;2023-05-24T08:52:15;94294.72;;;24.69;41.04
11329;BME280;5719;42.714;23.732;2023-05-24T08:54:44;94310.41;;;24.77;45.94
11329;BME280;5719;42.714;23.732;2023-05-24T08:57:12;94308.22;;;24.87;45.85
11329;BME280;5719;42.714;23.732;2023-05-24T08:59:41;94301.28;;;24.93;44.05
11329;BME280;5719;42.714;23.732;2023-05-24T09:02:10;94308.00;;;25.48;43.08
11329;BME280;5719;42.714;23.732;2023-05-24T09:04:40;94307.44;;;25.39;43.57
11329;BME280;5719;42.714;23.732;2023-05-24T09:07:09;94307.00;;;25.75;40.12
11329;BME280;5719;42.714;23.732;2023-05-24T09:09:39;94305.06;;;26.21;40.71
11329;BME280;5719;42.714;23.732;2023-05-24T09:12:14;94304.03;;;26.29;43.63
11329;BME280;5719;42.714;23.732;2023-05-24T09:14:44;94307.16;;;25.93;44.02
11329;BME280;5719;42.714;23.732;2023-05-24T09:17:12;94308.00;;;25.94;43.72
11329;BME280;5719;42.714;23.732;2023-05-24T09:19:43;94306.22;;;26.39;43.38
11329;BME280;5719;42.714;23.732;2023-05-24T09:22:12;94310.25;;;26.48;41.69
11329;BME280;5719;42.714;23.732;2023-05-24T09:24:40;94298.97;;;26.97;41.20
11329;BME280;5719;42.714;23.732;2023-05-24T09:27:07;94291.44;;;26.62;41.75
11329;BME280;5719;42.714;23.732;2023-05-24T09:29:36;94292.59;;;26.73;40.20
11329;BME280;5719;42.714;23.732;2023-05-24T09:32:05;94295.25;;;27.04;41.27
11329;BME280;5719;42.714;23.732;2023-05-24T09:34:37;94289.63;;;27.44;40.04
11329;BME280;5719;42.714;23.732;2023-05-24T09:37:04;94289.50;;;26.76;40.79
11329;BME280;5719;42.714;23.732;2023-05-24T09:39:32;94280.97;;;26.67;40.35
11329;BME280;5719;42.714;23.732;2023-05-24T09:42:00;94288.81;;;26.94;40.62
11329;BME280;5719;42.714;23.732;2023-05-24T09:44:28;94291.91;;;27.15;42.58
11329;BME280;5719;42.714;23.732;2023-05-24T09:47:00;94284.97;;;27.46;39.68
11329;BME280;5719;42.714;23.732;2023-05-24T09:49:29;94281.19;;;26.66;42.45
11329;BME280;5719;42.714;23.732;2023-05-24T09:51:56;94282.81;;;27.05;40.20
11329;BME280;5719;42.714;23.732;2023-05-24T09:54:23;94286.34;;;27.48;38.66
11329;BME280;5719;42.714;23.732;2023-05-24T09:56:51;94290.06;;;26.91;38.48
11329;BME280;5719;42.714;23.732;2023-05-24T09:59:18;94280.88;;;27.43;39.02
11329;BME280;5719;42.714;23.732;2023-05-24T10:01:45;94288.97;;;27.73;36.99
11329;BME280;5719;42.714;23.732;2023-05-24T10:04:31;94286.75;;;27.70;36.62
11329;BME280;5719;42.714;23.732;2023-05-24T10:06:58;94294.56;;;27.47;37.25
11329;BME280;5719;42.714;23.732;2023-05-24T10:09:28;94289.97;;;27.29;36.84
11329;BME280;5719;42.714;23.732;2023-05-24T10:12:01;94284.91;;;27.52;37.38
11329;BME280;5719;42.714;23.732;2023-05-24T10:14:31;94286.34;;;27.91;38.48
11329;BME280;5719;42.714;23.732;2023-05-24T10:16:59;94288.63;;;28.12;38.82
11329;BME280;5719;42.714;23.732;2023-05-24T10:19:27;94280.03;;;28.10;39.83
11329;BME280;5719;42.714;23.732;2023-05-24T10:21:55;94287.69;;;27.82;36.77
11329;BME280;5719;42.714;23.732;2023-05-24T10:24:25;94278.91;;;28.00;37.84
11329;BME280;5719;42.714;23.732;2023-05-24T10:26:55;94274.97;;;28.02;37.55
11329;BME280;5719;42.714;23.732;2023-05-24T10:29:34;94269.81;;;27.71;38.51
11329;BME280;5719;42.714;23.732;2023-05-24T10:44:51;94267.59;;;29.65;33.98
11329;BME280;5719;42.714;23.732;2023-05-24T10:47:19;94264.13;;;29.76;34.10
11329;BME280;5719;42.714;23.732;2023-05-24T10:49:48;94261.66;;;30.09;34.72
11329;BME280;5719;42.714;23.732;2023-05-24T10:52:17;94263.06;;;30.00;34.63
11329;BME280;5719;42.714;23.732;2023-05-24T10:55:05;94261.34;;;29.83;32.92
11329;BME280;5719;42.714;23.732;2023-05-24T10:57:32;94255.69;;;29.91;34.03
11329;BME280;5719;42.714;23.732;2023-05-24T11:03:02;94249.88;;;29.59;35.42
11329;BME280;5719;42.714;23.732;2023-05-24T11:05:33;94250.56;;;29.78;36.00
11329;BME280;5719;42.714;23.732;2023-05-24T11:08:01;94250.19;;;29.74;32.98
11329;BME280;5719;42.714;23.732;2023-05-24T11:10:30;94249.63;;;29.95;33.46
11329;BME280;5719;42.714;23.732;2023-05-24T11:12:59;94250.38;;;30.31;32.08
11329;BME280;5719;42.714;23.732;2023-05-24T11:15:26;94243.38;;;30.53;32.81
11329;BME280;5719;42.714;23.732;2023-05-24T11:18:14;94245.72;;;30.38;32.14
11329;BME280;5719;42.714;23.732;2023-05-24T11:20:42;94232.50;;;30.71;32.80
11329;BME280;5719;42.714;23.732;2023-05-24T11:23:10;94232.00;;;30.46;29.88
11329;BME280;5719;42.714;23.732;2023-05-24T11:25:37;94232.69;;;30.53;31.57
11329;BME280;5719;42.714;23.732;2023-05-24T11:28:06;94234.50;;;31.09;31.90
11329;BME280;5719;42.714;23.732;2023-05-24T11:30:39;94232.50;;;31.33;30.82
11329;BME280;5719;42.714;23.732;2023-05-24T11:33:15;94237.19;;;31.59;31.40
11329;BME280;5719;42.714;23.732;2023-05-24T11:35:44;94237.03;;;31.32;31.52
11329;BME280;5719;42.714;23.732;2023-05-24T11:38:11;94235.03;;;30.94;32.27
11329;BME280;5719;42.714;23.732;2023-05-24T11:40:40;94248.75;;;30.30;33.22
11329;BME280;5719;42.714;23.732;2023-05-24T11:43:12;94237.47;;;29.76;33.48
11329;BME280;5719;42.714;23.732;2023-05-24T11:45:41;94238.75;;;29.39;32.78
11329;BME280;5719;42.714;23.732;2023-05-24T11:48:08;94237.13;;;29.49;35.48
11329;BME280;5719;42.714;23.732;2023-05-24T11:50:41;94235.50;;;29.72;34.57
11329;BME280;5719;42.714;23.732;2023-05-24T11:53:09;94235.47;;;29.95;32.93
11329;BME280;5719;42.714;23.732;2023-05-24T11:55:37;94232.59;;;29.96;32.05
11329;BME280;5719;42.714;23.732;2023-05-24T11:58:09;94239.03;;;30.24;31.35
11329;BME280;5719;42.714;23.732;2023-05-24T12:00:37;94233.16;;;30.50;31.13
11329;BME280;5719;42.714;23.732;2023-05-24T12:03:04;94241.59;;;30.18;33.64
11329;BME280;5719;42.714;23.732;2023-05-24T12:05:33;94232.84;;;29.72;35.13
11329;BME280;5719;42.714;23.732;2023-05-24T12:08:04;94224.91;;;28.95;36.31
11329;BME280;5719;42.714;23.732;2023-05-24T12:10:33;94228.03;;;28.62;36.81
11329;BME280;5719;42.714;23.732;2023-05-24T12:13:01;94220.28;;;27.95;38.10
11329;BME280;5719;42.714;23.732;2023-05-24T12:15:29;94220.25;;;27.15;38.67
11329;BME280;5719;42.714;23.732;2023-05-24T12:17:56;94220.31;;;26.84;39.55
11329;BME280;5719;42.714;23.732;2023-05-24T12:20:25;94220.31;;;26.84;40.46
11329;BME280;5719;42.714;23.732;2023-05-24T12:22:54;94227.41;;;26.90;40.76
11329;BME280;5719;42.714;23.732;2023-05-24T12:25:22;94217.78;;;26.96;40.62
11329;BME280;5719;42.714;23.732;2023-05-24T12:27:52;94214.69;;;26.99;39.89
11329;BME280;5719;42.714;23.732;2023-05-24T12:30:22;94223.38;;;26.81;40.36
11329;BME280;5719;42.714;23.732;2023-05-24T12:32:50;94220.25;;;27.15;39.91
11329;BME280;5719;42.714;23.732;2023-05-24T12:35:19;94220.56;;;27.25;39.25
11329;BME280;5719;42.714;23.732;2023-05-24T12:37:47;94222.41;;;27.00;41.27
11329;BME280;5719;42.714;23.732;2023-05-24T12:40:15;94209.13;;;26.44;41.05
11329;BME280;5719;42.714;23.732;2023-05-24T12:42:49;94210.81;;;26.63;40.43
11329;BME280;5719;42.714;23.732;2023-05-24T12:45:16;94200.59;;;26.98;40.33
11329;BME280;5719;42.714;23.732;2023-05-24T12:47:48;94208.38;;;26.93;39.67
11329;BME280;5719;42.714;23.732;2023-05-24T12:50:16;94194.78;;;26.83;39.99
11329;BME280;5719;42.714;23.732;2023-05-24T12:52:43;94200.75;;;27.03;38.18
11329;BME280;5719;42.714;23.732;2023-05-24T12:55:12;94196.41;;;27.09;38.83
11329;BME280;5719;42.714;23.732;2023-05-24T12:57:40;94205.03;;;27.04;38.55
11329;BME280;5719;42.714;23.732;2023-05-24T13:00:10;94199.34;;;27.50;38.52
11329;BME280;5719;42.714;23.732;2023-05-24T13:02:39;94194.91;;;27.38;38.30
11329;BME280;5719;42.714;23.732;2023-05-24T13:05:08;94191.56;;;27.49;37.25
11329;BME280;5719;42.714;23.732;2023-05-24T13:07:35;94192.69;;;27.16;38.84
11329;BME280;5719;42.714;23.732;2023-05-24T13:10:02;94187.97;;;27.80;37.06
11329;BME280;5719;42.714;23.732;2023-05-24T13:12:30;94187.16;;;27.79;37.30
11329;BME280;5719;42.714;23.732;2023-05-24T13:14:57;94183.38;;;28.05;37.56
11329;BME280;5719;42.714;23.732;2023-05-24T13:17:25;94179.84;;;28.41;36.08
11329;BME280;5719;42.714;23.732;2023-05-24T13:19:52;94175.13;;;28.84;35.77
11329;BME280;5719;42.714;23.732;2023-05-24T13:22:21;94173.59;;;28.47;36.35
11329;BME280;5719;42.714;23.732;2023-05-24T13:24:49;94184.03;;;28.60;36.16